Forside
METAR-TAF:

METAR-TAF

Lufthavne :

Christchurch, New Zealand

Breddekreds: 43-29S, længdekreds: 172-33E, højde: 38 m

Aktuelle vejr

Denne rapport blev lavet for 37 minutter siden, kl. 00:00 UTC
Vind 18 kt fra sydsydvest
Temperatur 13°C
Fugtighed 67%
Tryk 1008 hPa
Sigt 10 km eller mere

METAR: NZCH 210000Z AUTO 21018KT 9999 FEW024/// 13/07 Q1008 NOSIG

Tid: 12:37 (00:37 UTC)

Vejrudsigter

Denne rapport blev lavet for 1 time og 32 minutter siden, kl. 23:05 UTC
Foreløbig gælder fra 21 på 00 UTC til 22 på 00 UTC
Vind 15 kt fra sydvest
Sigt 10 km eller mere
Spredte skyer i en højde af 1600 ft
Midlertidig
fra 21 på 01 UTC til 21 på 09 UTC
Brudte skyer i en højde af 1200 ft
ændring
fra 21 på 07 UTC til 21 på 09 UTC
Vind 5 kt fra vest

TAF: NZCH 202305Z 2100/2200 22015KT 9999 SCT016 TEMPO 2101/2109 BKN012 BECMG 2107/2109 26005KT

Vejrobservationer og prognoser fra mere end 4000 lufthavne (METAR og TAF).

De gule og røde prikker repræsenterer de meteorologiske stationer.

Flyt musen over at se navnet på stationen.

Så klik over at se vejr observationer og prognoser.

At skifte det kort: Klik på de grønne knapper med et sort kors for at zoome ind; på den grønne knap med en bindestreg for at zoome ud; eller på de grønne pile for tilstødende kort.


METAR-TAF: